sensor_id;sensor_type;location;lat;lon;timestamp;temperature;humidity
16625;DHT22;8426;48.496;9.098;2022-11-15T00:01:17;3.90;99.90
16625;DHT22;8426;48.496;9.098;2022-11-15T00:06:21;3.80;99.90
16625;DHT22;8426;48.496;9.098;2022-11-15T00:11:27;3.80;99.90
16625;DHT22;8426;48.496;9.098;2022-11-15T00:16:30;3.80;99.90
16625;DHT22;8426;48.496;9.098;2022-11-15T00:21:33;3.70;99.90
16625;DHT22;8426;48.496;9.098;2022-11-15T00:26:38;3.60;99.90
16625;DHT22;8426;48.496;9.098;2022-11-15T00:31:41;3.50;99.90
16625;DHT22;8426;48.496;9.098;2022-11-15T00:36:44;3.50;99.90
16625;DHT22;8426;48.496;9.098;2022-11-15T00:41:49;3.50;99.90
16625;DHT22;8426;48.496;9.098;2022-11-15T00:46:52;3.40;99.90
16625;DHT22;8426;48.496;9.098;2022-11-15T00:51:55;3.40;99.90
16625;DHT22;8426;48.496;9.098;2022-11-15T00:57:00;3.40;99.90
16625;DHT22;8426;48.496;9.098;2022-11-15T01:02:03;3.20;99.90
16625;DHT22;8426;48.496;9.098;2022-11-15T01:07:06;3.10;99.90
16625;DHT22;8426;48.496;9.098;2022-11-15T01:12:11;3.00;99.90
16625;DHT22;8426;48.496;9.098;2022-11-15T01:17:14;2.90;99.90
16625;DHT22;8426;48.496;9.098;2022-11-15T01:22:17;2.90;99.90
16625;DHT22;8426;48.496;9.098;2022-11-15T01:27:22;3.10;99.90
16625;DHT22;8426;48.496;9.098;2022-11-15T01:32:25;3.20;99.90
16625;DHT22;8426;48.496;9.098;2022-11-15T01:37:28;3.30;99.90
16625;DHT22;8426;48.496;9.098;2022-11-15T01:42:33;3.20;99.90
16625;DHT22;8426;48.496;9.098;2022-11-15T01:47:38;3.20;99.90
16625;DHT22;8426;48.496;9.098;2022-11-15T01:52:42;3.20;99.90
16625;DHT22;8426;48.496;9.098;2022-11-15T01:57:50;3.10;99.90
16625;DHT22;8426;48.496;9.098;2022-11-15T02:02:55;3.10;99.90
16625;DHT22;8426;48.496;9.098;2022-11-15T02:07:59;3.00;99.90
16625;DHT22;8426;48.496;9.098;2022-11-15T02:13:04;3.10;99.90
16625;DHT22;8426;48.496;9.098;2022-11-15T02:18:12;3.00;99.90
16625;DHT22;8426;48.496;9.098;2022-11-15T02:23:44;2.90;99.90
16625;DHT22;8426;48.496;9.098;2022-11-15T02:29:01;2.90;99.90
16625;DHT22;8426;48.496;9.098;2022-11-15T02:34:15;2.90;99.90
16625;DHT22;8426;48.496;9.098;2022-11-15T02:39:25;3.00;99.90
16625;DHT22;8426;48.496;9.098;2022-11-15T02:44:35;3.00;99.90
16625;DHT22;8426;48.496;9.098;2022-11-15T02:49:45;3.00;99.90
16625;DHT22;8426;48.496;9.098;2022-11-15T02:54:53;3.00;99.90
16625;DHT22;8426;48.496;9.098;2022-11-15T03:00:03;2.90;99.90
16625;DHT22;8426;48.496;9.098;2022-11-15T03:05:17;3.00;99.90
16625;DHT22;8426;48.496;9.098;2022-11-15T03:10:26;3.10;99.90
16625;DHT22;8426;48.496;9.098;2022-11-15T03:15:34;3.10;99.90
16625;DHT22;8426;48.496;9.098;2022-11-15T03:20:42;3.20;99.90
16625;DHT22;8426;48.496;9.098;2022-11-15T03:25:48;3.30;99.90
16625;DHT22;8426;48.496;9.098;2022-11-15T03:30:53;3.30;99.90
16625;DHT22;8426;48.496;9.098;2022-11-15T03:35:59;3.40;99.90
16625;DHT22;8426;48.496;9.098;2022-11-15T03:41:06;3.40;99.90
16625;DHT22;8426;48.496;9.098;2022-11-15T03:46:13;3.50;99.90
16625;DHT22;8426;48.496;9.098;2022-11-15T03:51:19;3.50;99.90
16625;DHT22;8426;48.496;9.098;2022-11-15T03:56:23;3.60;99.90
16625;DHT22;8426;48.496;9.098;2022-11-15T04:01:26;3.60;99.90
16625;DHT22;8426;48.496;9.098;2022-11-15T04:06:30;3.50;99.90
16625;DHT22;8426;48.496;9.098;2022-11-15T04:11:34;3.50;99.90
16625;DHT22;8426;48.496;9.098;2022-11-15T04:16:37;3.40;99.90
16625;DHT22;8426;48.496;9.098;2022-11-15T04:21:46;3.30;99.90
16625;DHT22;8426;48.496;9.098;2022-11-15T04:27:06;3.20;99.90
16625;DHT22;8426;48.496;9.098;2022-11-15T04:32:10;3.30;99.90
16625;DHT22;8426;48.496;9.098;2022-11-15T04:37:14;3.40;99.90
16625;DHT22;8426;48.496;9.098;2022-11-15T04:42:18;3.50;99.90
16625;DHT22;8426;48.496;9.098;2022-11-15T04:47:21;3.60;99.90
16625;DHT22;8426;48.496;9.098;2022-11-15T04:52:25;3.60;99.90
16625;DHT22;8426;48.496;9.098;2022-11-15T04:57:29;3.40;99.90
16625;DHT22;8426;48.496;9.098;2022-11-15T05:02:32;3.30;99.90
16625;DHT22;8426;48.496;9.098;2022-11-15T05:07:51;3.20;99.90
16625;DHT22;8426;48.496;9.098;2022-11-15T05:12:54;3.20;99.90
16625;DHT22;8426;48.496;9.098;2022-11-15T05:17:59;3.20;99.90
16625;DHT22;8426;48.496;9.098;2022-11-15T05:23:03;3.30;99.90
16625;DHT22;8426;48.496;9.098;2022-11-15T05:28:07;3.50;99.90
16625;DHT22;8426;48.496;9.098;2022-11-15T05:33:10;3.80;99.90
16625;DHT22;8426;48.496;9.098;2022-11-15T05:38:15;3.90;99.90
16625;DHT22;8426;48.496;9.098;2022-11-15T05:43:18;4.00;99.90
16625;DHT22;8426;48.496;9.098;2022-11-15T05:48:22;4.00;99.90
16625;DHT22;8426;48.496;9.098;2022-11-15T05:53:27;3.90;99.90
16625;DHT22;8426;48.496;9.098;2022-11-15T05:58:31;3.80;99.90
16625;DHT22;8426;48.496;9.098;2022-11-15T06:03:34;3.70;99.90
16625;DHT22;8426;48.496;9.098;2022-11-15T06:08:39;3.60;99.90
16625;DHT22;8426;48.496;9.098;2022-11-15T06:13:42;3.50;99.90
16625;DHT22;8426;48.496;9.098;2022-11-15T06:18:47;3.40;99.90
16625;DHT22;8426;48.496;9.098;2022-11-15T06:23:52;3.30;99.90
16625;DHT22;8426;48.496;9.098;2022-11-15T06:28:55;3.30;99.90
16625;DHT22;8426;48.496;9.098;2022-11-15T06:33:59;3.40;99.90
16625;DHT22;8426;48.496;9.098;2022-11-15T06:39:04;3.50;99.90
16625;DHT22;8426;48.496;9.098;2022-11-15T06:44:07;3.70;99.90
16625;DHT22;8426;48.496;9.098;2022-11-15T06:49:11;3.80;99.90
16625;DHT22;8426;48.496;9.098;2022-11-15T06:54:15;3.90;99.90
16625;DHT22;8426;48.496;9.098;2022-11-15T06:59:20;4.00;99.90
16625;DHT22;8426;48.496;9.098;2022-11-15T07:04:23;4.20;99.90
16625;DHT22;8426;48.496;9.098;2022-11-15T07:09:28;4.50;99.90
16625;DHT22;8426;48.496;9.098;2022-11-15T07:14:31;4.80;99.90
16625;DHT22;8426;48.496;9.098;2022-11-15T07:19:35;5.10;99.90
16625;DHT22;8426;48.496;9.098;2022-11-15T07:24:39;5.30;99.90
16625;DHT22;8426;48.496;9.098;2022-11-15T07:29:42;5.60;99.90
16625;DHT22;8426;48.496;9.098;2022-11-15T07:34:46;5.80;99.90
16625;DHT22;8426;48.496;9.098;2022-11-15T07:39:50;6.00;99.90
16625;DHT22;8426;48.496;9.098;2022-11-15T07:44:54;6.20;99.90
16625;DHT22;8426;48.496;9.098;2022-11-15T07:49:57;6.40;99.90
16625;DHT22;8426;48.496;9.098;2022-11-15T07:55:01;6.80;99.90
16625;DHT22;8426;48.496;9.098;2022-11-15T08:00:06;7.00;99.90
16625;DHT22;8426;48.496;9.098;2022-11-15T08:05:10;7.10;99.90
16625;DHT22;8426;48.496;9.098;2022-11-15T08:10:15;7.30;99.90
16625;DHT22;8426;48.496;9.098;2022-11-15T08:15:20;7.30;99.90
16625;DHT22;8426;48.496;9.098;2022-11-15T08:20:25;7.40;99.90
16625;DHT22;8426;48.496;9.098;2022-11-15T08:25:32;7.40;99.90
16625;DHT22;8426;48.496;9.098;2022-11-15T08:30:37;7.50;99.90
16625;DHT22;8426;48.496;9.098;2022-11-15T08:35:43;7.60;99.90
16625;DHT22;8426;48.496;9.098;2022-11-15T08:40:48;7.50;99.90
16625;DHT22;8426;48.496;9.098;2022-11-15T08:45:55;7.50;99.90
16625;DHT22;8426;48.496;9.098;2022-11-15T08:50:59;7.60;99.90
16625;DHT22;8426;48.496;9.098;2022-11-15T08:56:07;7.70;99.90
16625;DHT22;8426;48.496;9.098;2022-11-15T09:01:15;8.10;99.90
16625;DHT22;8426;48.496;9.098;2022-11-15T09:06:19;8.60;99.90
16625;DHT22;8426;48.496;9.098;2022-11-15T09:11:24;8.80;99.90
16625;DHT22;8426;48.496;9.098;2022-11-15T09:16:30;9.10;99.90
16625;DHT22;8426;48.496;9.098;2022-11-15T09:21:33;9.10;99.90
16625;DHT22;8426;48.496;9.098;2022-11-15T09:26:38;9.00;99.90
16625;DHT22;8426;48.496;9.098;2022-11-15T09:31:41;9.00;99.90
16625;DHT22;8426;48.496;9.098;2022-11-15T09:36:45;9.20;99.90
16625;DHT22;8426;48.496;9.098;2022-11-15T09:42:01;9.40;99.90
16625;DHT22;8426;48.496;9.098;2022-11-15T09:47:30;9.70;99.90
16625;DHT22;8426;48.496;9.098;2022-11-15T09:52:41;10.00;99.90
16625;DHT22;8426;48.496;9.098;2022-11-15T09:57:52;10.20;99.90
16625;DHT22;8426;48.496;9.098;2022-11-15T10:03:08;10.50;99.90
16625;DHT22;8426;48.496;9.098;2022-11-15T10:08:30;10.70;99.90
16625;DHT22;8426;48.496;9.098;2022-11-15T10:13:40;10.90;99.90
16625;DHT22;8426;48.496;9.098;2022-11-15T10:18:52;11.10;99.90
16625;DHT22;8426;48.496;9.098;2022-11-15T10:23:58;11.20;99.90
16625;DHT22;8426;48.496;9.098;2022-11-15T10:29:03;11.20;99.90
16625;DHT22;8426;48.496;9.098;2022-11-15T10:34:12;11.20;99.90
16625;DHT22;8426;48.496;9.098;2022-11-15T10:39:16;11.40;99.90
16625;DHT22;8426;48.496;9.098;2022-11-15T10:44:26;11.40;99.90
16625;DHT22;8426;48.496;9.098;2022-11-15T10:49:31;11.50;99.90
16625;DHT22;8426;48.496;9.098;2022-11-15T10:54:37;11.60;99.90
16625;DHT22;8426;48.496;9.098;2022-11-15T10:59:46;11.70;99.90
16625;DHT22;8426;48.496;9.098;2022-11-15T11:04:51;11.60;99.90
16625;DHT22;8426;48.496;9.098;2022-11-15T11:10:03;11.60;99.90
16625;DHT22;8426;48.496;9.098;2022-11-15T11:15:28;11.70;99.90
16625;DHT22;8426;48.496;9.098;2022-11-15T11:20:36;11.70;99.90
16625;DHT22;8426;48.496;9.098;2022-11-15T11:25:46;11.70;99.90
16625;DHT22;8426;48.496;9.098;2022-11-15T11:31:04;11.80;99.90
16625;DHT22;8426;48.496;9.098;2022-11-15T11:36:19;12.00;99.90
16625;DHT22;8426;48.496;9.098;2022-11-15T11:41:38;12.20;99.90
16625;DHT22;8426;48.496;9.098;2022-11-15T11:46:55;12.20;99.90
16625;DHT22;8426;48.496;9.098;2022-11-15T11:52:03;12.30;99.90
16625;DHT22;8426;48.496;9.098;2022-11-15T11:57:17;12.40;99.90
16625;DHT22;8426;48.496;9.098;2022-11-15T12:02:29;12.30;99.90
16625;DHT22;8426;48.496;9.098;2022-11-15T12:07:36;12.30;99.90
16625;DHT22;8426;48.496;9.098;2022-11-15T12:12:46;12.20;99.90
16625;DHT22;8426;48.496;9.098;2022-11-15T12:17:55;12.20;99.90
16625;DHT22;8426;48.496;9.098;2022-11-15T12:23:04;12.20;99.90
16625;DHT22;8426;48.496;9.098;2022-11-15T12:28:17;12.10;99.90
16625;DHT22;8426;48.496;9.098;2022-11-15T12:33:32;12.20;99.90
16625;DHT22;8426;48.496;9.098;2022-11-15T12:38:55;12.10;99.90
16625;DHT22;8426;48.496;9.098;2022-11-15T12:43:59;12.20;99.90
16625;DHT22;8426;48.496;9.098;2022-11-15T12:49:09;12.40;99.90
16625;DHT22;8426;48.496;9.098;2022-11-15T13:06:08;12.40;99.90
16625;DHT22;8426;48.496;9.098;2022-11-15T13:11:51;12.40;99.90
16625;DHT22;8426;48.496;9.098;2022-11-15T13:16:58;12.30;99.90
16625;DHT22;8426;48.496;9.098;2022-11-15T13:22:09;12.20;99.90
16625;DHT22;8426;48.496;9.098;2022-11-15T13:27:40;12.20;99.90
16625;DHT22;8426;48.496;9.098;2022-11-15T13:32:43;12.20;99.90
16625;DHT22;8426;48.496;9.098;2022-11-15T13:37:50;12.10;99.90
16625;DHT22;8426;48.496;9.098;2022-11-15T13:42:53;11.90;99.90
16625;DHT22;8426;48.496;9.098;2022-11-15T13:47:58;11.80;99.90
16625;DHT22;8426;48.496;9.098;2022-11-15T13:53:05;11.80;99.90
16625;DHT22;8426;48.496;9.098;2022-11-15T13:58:09;11.70;99.90
16625;DHT22;8426;48.496;9.098;2022-11-15T14:03:19;11.70;99.90
16625;DHT22;8426;48.496;9.098;2022-11-15T14:08:24;11.60;99.90
16625;DHT22;8426;48.496;9.098;2022-11-15T14:13:28;11.50;99.90
16625;DHT22;8426;48.496;9.098;2022-11-15T14:18:42;11.40;99.90
16625;DHT22;8426;48.496;9.098;2022-11-15T14:23:50;11.40;99.90
16625;DHT22;8426;48.496;9.098;2022-11-15T14:28:53;11.40;99.90
16625;DHT22;8426;48.496;9.098;2022-11-15T14:33:57;11.40;99.90
16625;DHT22;8426;48.496;9.098;2022-11-15T14:39:01;11.30;99.90
16625;DHT22;8426;48.496;9.098;2022-11-15T14:44:10;11.20;99.90
16625;DHT22;8426;48.496;9.098;2022-11-15T14:49:20;11.10;99.90
16625;DHT22;8426;48.496;9.098;2022-11-15T14:54:25;11.10;99.90
16625;DHT22;8426;48.496;9.098;2022-11-15T14:59:28;11.00;99.90
16625;DHT22;8426;48.496;9.098;2022-11-15T15:04:31;10.90;99.90
16625;DHT22;8426;48.496;9.098;2022-11-15T15:09:36;10.80;99.90
16625;DHT22;8426;48.496;9.098;2022-11-15T15:14:39;10.70;99.90
16625;DHT22;8426;48.496;9.098;2022-11-15T15:19:43;10.50;99.90
16625;DHT22;8426;48.496;9.098;2022-11-15T15:24:48;10.40;99.90
16625;DHT22;8426;48.496;9.098;2022-11-15T15:29:51;10.30;99.90
16625;DHT22;8426;48.496;9.098;2022-11-15T15:34:58;10.10;99.90
16625;DHT22;8426;48.496;9.098;2022-11-15T15:40:11;10.00;99.90
16625;DHT22;8426;48.496;9.098;2022-11-15T15:45:17;9.90;99.90
16625;DHT22;8426;48.496;9.098;2022-11-15T15:50:23;9.90;99.90
16625;DHT22;8426;48.496;9.098;2022-11-15T15:55:29;9.90;99.90
16625;DHT22;8426;48.496;9.098;2022-11-15T16:00:33;9.80;99.90
16625;DHT22;8426;48.496;9.098;2022-11-15T16:05:38;9.70;99.90
16625;DHT22;8426;48.496;9.098;2022-11-15T16:10:45;9.50;99.90
16625;DHT22;8426;48.496;9.098;2022-11-15T16:15:52;9.40;99.90
16625;DHT22;8426;48.496;9.098;2022-11-15T16:20:55;9.40;99.90
16625;DHT22;8426;48.496;9.098;2022-11-15T16:26:00;9.30;99.90
16625;DHT22;8426;48.496;9.098;2022-11-15T16:31:08;9.30;99.90
16625;DHT22;8426;48.496;9.098;2022-11-15T16:36:19;9.30;99.90
16625;DHT22;8426;48.496;9.098;2022-11-15T16:41:32;9.40;99.90
16625;DHT22;8426;48.496;9.098;2022-11-15T16:46:35;9.50;99.90
16625;DHT22;8426;48.496;9.098;2022-11-15T16:51:39;9.70;99.90
16625;DHT22;8426;48.496;9.098;2022-11-15T16:56:44;10.00;99.90
16625;DHT22;8426;48.496;9.098;2022-11-15T17:01:48;10.10;99.90
16625;DHT22;8426;48.496;9.098;2022-11-15T17:06:56;10.00;99.90
16625;DHT22;8426;48.496;9.098;2022-11-15T17:12:01;9.80;99.90
16625;DHT22;8426;48.496;9.098;2022-11-15T17:17:04;9.60;99.90
16625;DHT22;8426;48.496;9.098;2022-11-15T17:22:07;9.50;99.90
16625;DHT22;8426;48.496;9.098;2022-11-15T17:27:13;9.50;99.90
16625;DHT22;8426;48.496;9.098;2022-11-15T17:32:16;9.40;99.90
16625;DHT22;8426;48.496;9.098;2022-11-15T17:37:20;9.30;99.90
16625;DHT22;8426;48.496;9.098;2022-11-15T17:42:25;9.30;99.90
16625;DHT22;8426;48.496;9.098;2022-11-15T17:47:28;9.40;99.90
16625;DHT22;8426;48.496;9.098;2022-11-15T17:52:31;9.20;99.90
16625;DHT22;8426;48.496;9.098;2022-11-15T17:57:38;9.10;99.90
16625;DHT22;8426;48.496;9.098;2022-11-15T18:02:41;9.30;99.90
16625;DHT22;8426;48.496;9.098;2022-11-15T18:07:45;9.70;99.90
16625;DHT22;8426;48.496;9.098;2022-11-15T18:12:49;9.80;99.90
16625;DHT22;8426;48.496;9.098;2022-11-15T18:17:53;9.80;99.90
16625;DHT22;8426;48.496;9.098;2022-11-15T18:23:01;9.80;99.90
16625;DHT22;8426;48.496;9.098;2022-11-15T18:28:06;9.90;99.90
16625;DHT22;8426;48.496;9.098;2022-11-15T18:33:11;9.90;99.90
16625;DHT22;8426;48.496;9.098;2022-11-15T18:38:14;9.80;99.90
16625;DHT22;8426;48.496;9.098;2022-11-15T18:43:19;9.70;99.90
16625;DHT22;8426;48.496;9.098;2022-11-15T18:48:23;9.70;99.90
16625;DHT22;8426;48.496;9.098;2022-11-15T18:53:26;9.60;99.90
16625;DHT22;8426;48.496;9.098;2022-11-15T18:58:41;9.50;99.90
16625;DHT22;8426;48.496;9.098;2022-11-15T19:03:46;9.50;99.90
16625;DHT22;8426;48.496;9.098;2022-11-15T19:08:50;9.50;99.90
16625;DHT22;8426;48.496;9.098;2022-11-15T19:13:59;9.50;99.90
16625;DHT22;8426;48.496;9.098;2022-11-15T19:19:05;9.40;99.90
16625;DHT22;8426;48.496;9.098;2022-11-15T19:24:09;9.30;99.90
16625;DHT22;8426;48.496;9.098;2022-11-15T19:29:14;9.20;99.90
16625;DHT22;8426;48.496;9.098;2022-11-15T19:34:21;9.30;99.90
16625;DHT22;8426;48.496;9.098;2022-11-15T19:39:25;9.90;99.90
16625;DHT22;8426;48.496;9.098;2022-11-15T19:44:29;10.50;99.90
16625;DHT22;8426;48.496;9.098;2022-11-15T19:49:33;10.90;99.90
16625;DHT22;8426;48.496;9.098;2022-11-15T19:54:36;11.00;99.90
16625;DHT22;8426;48.496;9.098;2022-11-15T19:59:41;10.70;99.90
16625;DHT22;8426;48.496;9.098;2022-11-15T20:04:44;10.50;99.90
16625;DHT22;8426;48.496;9.098;2022-11-15T20:09:48;10.30;99.90
16625;DHT22;8426;48.496;9.098;2022-11-15T20:14:53;10.10;99.90
16625;DHT22;8426;48.496;9.098;2022-11-15T20:19:56;9.90;99.90
16625;DHT22;8426;48.496;9.098;2022-11-15T20:25:00;9.70;99.90
16625;DHT22;8426;48.496;9.098;2022-11-15T20:30:08;9.50;99.90
16625;DHT22;8426;48.496;9.098;2022-11-15T20:35:11;9.40;99.90
16625;DHT22;8426;48.496;9.098;2022-11-15T20:40:15;9.50;99.90
16625;DHT22;8426;48.496;9.098;2022-11-15T20:45:20;9.70;99.90
16625;DHT22;8426;48.496;9.098;2022-11-15T20:50:25;10.00;99.90
16625;DHT22;8426;48.496;9.098;2022-11-15T20:55:45;9.90;99.90
16625;DHT22;8426;48.496;9.098;2022-11-15T21:00:54;9.60;99.90
16625;DHT22;8426;48.496;9.098;2022-11-15T21:05:58;9.50;99.90
16625;DHT22;8426;48.496;9.098;2022-11-15T21:11:01;9.40;99.90
16625;DHT22;8426;48.496;9.098;2022-11-15T21:16:23;9.30;99.90
16625;DHT22;8426;48.496;9.098;2022-11-15T21:21:29;9.20;99.90
16625;DHT22;8426;48.496;9.098;2022-11-15T21:26:32;9.30;99.90
16625;DHT22;8426;48.496;9.098;2022-11-15T21:31:36;9.20;99.90
16625;DHT22;8426;48.496;9.098;2022-11-15T21:36:40;9.20;99.90
16625;DHT22;8426;48.496;9.098;2022-11-15T21:41:43;9.10;99.90
16625;DHT22;8426;48.496;9.098;2022-11-15T21:46:48;9.10;99.90
16625;DHT22;8426;48.496;9.098;2022-11-15T21:51:52;9.10;99.90
16625;DHT22;8426;48.496;9.098;2022-11-15T21:56:56;9.10;99.90
16625;DHT22;8426;48.496;9.098;2022-11-15T22:02:00;9.00;99.90
16625;DHT22;8426;48.496;9.098;2022-11-15T22:07:16;9.00;99.90
16625;DHT22;8426;48.496;9.098;2022-11-15T22:12:19;9.00;99.90
16625;DHT22;8426;48.496;9.098;2022-11-15T22:17:31;8.90;99.90
16625;DHT22;8426;48.496;9.098;2022-11-15T22:22:48;8.90;99.90
16625;DHT22;8426;48.496;9.098;2022-11-15T22:27:52;8.90;99.90
16625;DHT22;8426;48.496;9.098;2022-11-15T22:32:56;8.90;99.90
16625;DHT22;8426;48.496;9.098;2022-11-15T22:38:00;8.80;99.90
16625;DHT22;8426;48.496;9.098;2022-11-15T22:43:04;8.80;99.90
16625;DHT22;8426;48.496;9.098;2022-11-15T22:48:09;8.80;99.90
16625;DHT22;8426;48.496;9.098;2022-11-15T22:53:12;8.70;99.90
16625;DHT22;8426;48.496;9.098;2022-11-15T22:58:16;8.70;99.90
16625;DHT22;8426;48.496;9.098;2022-11-15T23:03:21;8.70;99.90
16625;DHT22;8426;48.496;9.098;2022-11-15T23:08:24;8.70;99.90
16625;DHT22;8426;48.496;9.098;2022-11-15T23:13:29;8.60;99.90
16625;DHT22;8426;48.496;9.098;2022-11-15T23:18:38;8.60;99.90
16625;DHT22;8426;48.496;9.098;2022-11-15T23:23:43;8.60;99.90
16625;DHT22;8426;48.496;9.098;2022-11-15T23:28:47;8.60;99.90
16625;DHT22;8426;48.496;9.098;2022-11-15T23:33:53;8.50;99.90
16625;DHT22;8426;48.496;9.098;2022-11-15T23:39:00;8.50;99.90
16625;DHT22;8426;48.496;9.098;2022-11-15T23:44:04;8.50;99.90
16625;DHT22;8426;48.496;9.098;2022-11-15T23:49:09;8.50;99.90
16625;DHT22;8426;48.496;9.098;2022-11-15T23:54:13;8.50;99.90
16625;DHT22;8426;48.496;9.098;2022-11-15T23:59:18;8.50;99.90
